Rugby, United Kingdom
Current Conditions -  °F | °C
As of 3:50 PM on Wednesday 28 Jan 2015 (Local Time) from EGBE Reporting Station
Rain Showers Rain Showers  
Wind Chill: 34°   Ceiling: Unl
Heat Index: 43°   Visibility: 6mi
Dew Point: 28°   Wind: 22mph
Humidity: 57%   Direction: 270°W
Pressure: 29.53"   Gusts: 35mph
Location:  52.39°N, 1.32°W
Report Text: EGBE 281550Z 27019G30KT 9999 VCSH FEW015CB SCT040 06/M02 Q1000
Loading
Personal Weather Stations






























Interactive Weather Map New forecast layout! Learn more

10-Day Weather Forecast

Advertisements
Track Severe Weather on mobile